This is the latest recevied weather packets stored in our database for station/object N9CQS-15. If no packets are shown the sender has not sent any weather packets the latest 10 day(s).
| Time | Temp. | Humidity | Pressure | Rain* | Wind** | Luminosity | Snow |
|---|---|---|---|---|---|---|---|
| 1777770542 | 9.44° C | 51% | 1019.1 hPa | 0 mm | - | - | - |
| 1777769943 | 10.56° C | 47% | 1019.1 hPa | 0 mm | - | - | - |
| 1777769343 | 10.56° C | 47% | 1018.9 hPa | 0 mm | - | - | - |
| 1777768744 | 11.11° C | 44% | 1018.8 hPa | 0 mm | - | - | - |
| 1777768141 | 11.67° C | 42% | 1018.8 hPa | 0 mm | - | - | - |
| 1777767542 | 12.22° C | 40% | 1018.8 hPa | 0 mm | - | - | - |
| 1777766942 | 12.22° C | 39% | 1018.7 hPa | 0 mm | - | - | - |
| 1777766342 | 12.22° C | 38% | 1018.7 hPa | 0 mm | - | - | - |
| 1777765742 | 12.78° C | 36% | 1018.7 hPa | 0 mm | - | - | - |
| 1777765142 | 12.78° C | 37% | 1018.7 hPa | 0 mm | - | - | - |
| 1777764541 | 12.78° C | 36% | 1018.7 hPa | 0 mm | - | - | - |
| 1777763941 | 12.78° C | 37% | 1018.8 hPa | 0 mm | - | - | - |
| 1777763342 | 12.78° C | 37% | 1018.8 hPa | 0 mm | - | - | - |
| 1777762742 | 13.33° C | 36% | 1018.8 hPa | 0 mm | - | - | - |
| 1777762142 | 13.33° C | 36% | 1018.8 hPa | 0 mm | - | - | - |
| 1777761542 | 13.89° C | 35% | 1018.7 hPa | 0 mm | - | - | - |
| 1777760942 | 13.89° C | 34% | 1018.7 hPa | 0 mm | - | - | - |
| 1777760342 | 13.33° C | 35% | 1018.9 hPa | 0 mm | - | - | - |
| 1777759742 | 13.33° C | 34% | 1018.9 hPa | 0 mm | - | - | - |
| 1777759142 | 13.33° C | 36% | 1018.9 hPa | 0 mm | - | - | - |
| 1777758541 | 13.33° C | 36% | 1018.9 hPa | 0 mm | - | - | - |
| 1777757942 | 13.33° C | 35% | 1018.9 hPa | 0 mm | - | - | - |
| 1777757341 | 13.33° C | 34% | 1019 hPa | 0 mm | - | - | - |
| 1777756741 | 12.78° C | 36% | 1019.1 hPa | 0 mm | - | - | - |
| 1777756141 | 12.78° C | 37% | 1019.1 hPa | 0 mm | - | - | - |
* Rain latest 24 hours (hover to see other rain measurements)
** Current wind speed in m/s (hover to see current wind gust speed)